Time;durP1;ratioP1;P1;durP2;ratioP2;P2;SDS_P1;SDS_P2;PMS_P1;PMS_P2;Temp;Humidity;BMP_temperature;BMP_pressure;BME280_temperature;BME280_humidity;BME280_pressure;Samples;Min_cycle;Max_cycle;Signal;HPM_P1;HPM_P2
2023/03/21 00:01:15;;;;;;;15.30;9.30;;;;;;;15.06;45.06;94475.41;4991758;28;20609;-52
2023/03/21 00:03:43;;;;;;;14.50;9.97;;;;;;;14.94;44.85;94455.38;4991692;28;20563;-50
2023/03/21 00:06:13;;;;;;;14.57;9.77;;;;;;;15.03;44.87;94467.25;4991225;28;20197;-52
2023/03/21 00:08:40;;;;;;;13.20;8.90;;;;;;;15.01;45.02;94476.91;4991483;28;20280;-49
2023/03/21 00:11:10;;;;;;;11.67;9.53;;;;;;;15.02;44.87;94479.31;4991527;28;20193;-53
2023/03/21 00:13:41;;;;;;;11.43;8.67;;;;;;;15.01;44.93;94472.56;4991552;28;20250;-51
2023/03/21 00:16:14;;;;;;;13.03;8.97;;;;;;;14.99;45.01;94473.72;4991624;28;20658;-55
2023/03/21 00:18:41;;;;;;;15.30;9.70;;;;;;;14.97;44.99;94468.72;4991250;28;20661;-51
2023/03/21 00:21:14;;;;;;;14.90;9.87;;;;;;;14.94;45.17;94469.06;4991420;28;20221;-53
2023/03/21 00:23:42;;;;;;;15.60;9.87;;;;;;;14.93;45.32;94469.22;4990958;28;20287;-52
2023/03/21 00:26:09;;;;;;;15.67;9.67;;;;;;;14.89;45.35;94468.75;4991363;28;20642;-49
2023/03/21 00:28:36;;;;;;;15.07;9.93;;;;;;;14.89;45.19;94471.34;4991016;28;20216;-48
2023/03/21 00:31:03;;;;;;;15.50;9.83;;;;;;;14.89;45.31;94467.97;4991004;28;20197;-53
2023/03/21 00:33:30;;;;;;;18.93;10.13;;;;;;;14.86;45.37;94473.47;4990947;28;20189;-52
2023/03/21 00:35:57;;;;;;;13.97;9.93;;;;;;;14.84;45.41;94470.25;4990888;28;20196;-53
2023/03/21 00:38:25;;;;;;;13.27;9.30;;;;;;;14.82;45.47;94474.78;4990585;28;20204;-52
2023/03/21 00:40:52;;;;;;;11.77;9.20;;;;;;;14.79;45.58;94468.97;4990920;28;20197;-55
2023/03/21 00:43:22;;;;;;;14.07;10.00;;;;;;;14.78;45.66;94471.72;4990874;28;20189;-52
2023/03/21 00:45:50;;;;;;;14.50;10.17;;;;;;;14.76;45.51;94469.31;4990904;28;20185;-52
2023/03/21 00:48:17;;;;;;;11.97;8.77;;;;;;;14.74;45.76;94468.69;4990772;28;20283;-53
2023/03/21 00:50:46;;;;;;;14.33;9.97;;;;;;;14.71;45.72;94470.78;4990298;28;20577;-50
2023/03/21 00:53:14;;;;;;;15.47;9.53;;;;;;;14.69;45.75;94459.88;4990440;28;20220;-49
2023/03/21 00:55:42;;;;;;;15.10;9.43;;;;;;;14.68;45.92;94463.41;4990673;28;20275;-49
2023/03/21 00:58:09;;;;;;;15.30;8.90;;;;;;;14.65;45.68;94459.41;4990367;28;20196;-51
2023/03/21 01:00:36;;;;;;;14.83;9.53;;;;;;;14.63;45.96;94463.91;4990383;28;20181;-49
2023/03/21 01:03:06;;;;;;;17.60;9.60;;;;;;;14.60;45.77;94461.69;4990337;28;20228;-51
2023/03/21 01:08:22;;;;;;;16.00;8.57;;;;;;;14.54;46.03;94457.19;4989945;28;20605;-53
2023/03/21 01:10:51;;;;;;;14.03;9.33;;;;;;;14.50;45.93;94458.50;4971293;28;20194;-51
2023/03/21 01:13:22;;;;;;;15.30;9.20;;;;;;;14.48;46.25;94456.09;4970745;28;20609;-50
2023/03/21 01:15:51;;;;;;;14.60;9.37;;;;;;;14.40;46.15;94448.38;4971330;28;20191;-49
2023/03/21 01:18:21;;;;;;;13.57;9.30;;;;;;;14.42;46.36;94451.59;4974321;28;20196;-54
2023/03/21 01:20:48;;;;;;;15.87;8.67;;;;;;;14.40;46.05;94455.31;4990706;28;20185;-50
2023/03/21 01:23:15;;;;;;;17.50;9.83;;;;;;;14.37;46.45;94451.28;4989843;28;20681;-51
2023/03/21 01:25:42;;;;;;;16.00;9.73;;;;;;;14.36;46.42;94459.16;4990106;28;20247;-50
2023/03/21 01:28:11;;;;;;;15.33;9.50;;;;;;;14.33;46.57;94452.56;4990230;28;20217;-49
2023/03/21 01:30:38;;;;;;;16.47;8.60;;;;;;;14.31;46.42;94459.66;4989962;28;20409;-53
2023/03/21 01:33:05;;;;;;;15.47;9.40;;;;;;;14.30;46.57;94463.22;4989704;28;20189;-52
2023/03/21 01:35:32;;;;;;;17.70;9.90;;;;;;;14.28;46.56;94462.56;4990291;28;20189;-48
2023/03/21 01:37:58;;;;;;;14.13;9.13;;;;;;;14.26;46.57;94462.75;4989740;28;20243;-51
2023/03/21 01:40:27;;;;;;;14.23;10.00;;;;;;;14.26;46.70;94452.47;4989804;28;20185;-52
2023/03/21 01:42:54;;;;;;;12.70;9.30;;;;;;;14.17;46.75;94450.09;4989805;28;20284;-52
2023/03/21 01:46:10;;;;;;;12.57;9.20;;;;;;;14.25;46.62;94455.22;4989254;28;20185;-53
2023/03/21 01:48:39;;;;;;;11.17;8.23;;;;;;;14.23;46.77;94459.69;4989567;28;20233;-48
2023/03/21 01:51:07;;;;;;;13.03;8.87;;;;;;;14.20;46.80;94457.44;4989643;28;20251;-51
2023/03/21 01:53:38;;;;;;;15.67;9.13;;;;;;;14.21;46.94;94459.88;4989358;28;20260;-50
2023/03/21 01:56:11;;;;;;;14.77;8.33;;;;;;;14.20;46.85;94452.31;4989389;28;20240;-53
2023/03/21 01:58:40;;;;;;;17.17;8.43;;;;;;;14.18;46.85;94447.34;4989499;28;20200;-52
2023/03/21 02:01:10;;;;;;;12.63;8.97;;;;;;;14.16;46.70;94446.72;4989190;28;20200;-53
2023/03/21 02:03:48;;;;;;;11.90;8.70;;;;;;;14.15;46.93;94455.38;4989148;28;20284;-53
2023/03/21 02:06:19;;;;;;;14.53;8.83;;;;;;;14.11;46.78;94448.94;4989722;28;20185;-54
2023/03/21 02:08:47;;;;;;;15.27;9.77;;;;;;;14.11;46.90;94458.44;4988878;28;20278;-53
2023/03/21 02:11:15;;;;;;;14.27;8.60;;;;;;;14.09;47.03;94450.91;4989470;28;20251;-53
2023/03/21 02:13:42;;;;;;;11.20;7.43;;;;;;;14.06;47.07;94438.38;4989228;28;20642;-56
2023/03/21 02:16:18;;;;;;;14.83;9.27;;;;;;;14.04;46.97;94440.31;4989524;28;20236;-57
2023/03/21 02:18:52;;;;;;;14.43;8.47;;;;;;;14.02;47.22;94444.81;4988920;28;20613;-56
2023/03/21 02:21:55;;;;;;;12.70;8.03;;;;;;;13.99;47.23;94438.25;4989691;28;20201;-56
2023/03/21 02:24:45;;;;;;;11.40;8.90;;;;;;;13.96;47.33;94443.69;4910228;29;20661;-56
2023/03/21 02:27:17;;;;;;;13.73;7.70;;;;;;;13.92;47.38;94437.28;4910365;29;20195;-58
2023/03/21 02:30:15;;;;;;;11.50;8.33;;;;;;;13.90;47.30;94434.06;4910699;29;20657;-52
2023/03/21 02:33:14;;;;;;;12.30;7.70;;;;;;;13.88;47.37;94432.63;4894534;29;20192;-51
2023/03/21 02:35:54;;;;;;;12.07;9.03;;;;;;;13.86;47.44;94430.25;4910424;29;20200;-54
2023/03/21 02:38:29;;;;;;;19.13;8.13;;;;;;;13.85;47.71;94445.81;4910152;29;20196;-53
2023/03/21 02:41:05;;;;;;;11.03;6.90;;;;;;;13.82;47.56;94441.81;4909829;29;20202;-54
2023/03/21 02:43:37;;;;;;;14.17;8.63;;;;;;;13.80;47.45;94430.88;4910079;29;20226;-55
2023/03/21 02:46:10;;;;;;;11.33;8.17;;;;;;;13.79;47.46;94426.72;4910176;29;20673;-53
2023/03/21 02:48:40;;;;;;;10.60;7.80;;;;;;;13.77;47.68;94428.63;4909873;29;20776;-54
2023/03/21 02:51:09;;;;;;;11.47;8.00;;;;;;;13.75;47.75;94426.22;4910386;29;20200;-55
2023/03/21 02:53:41;;;;;;;12.17;7.33;;;;;;;13.73;47.79;94432.50;4909879;29;20196;-55
2023/03/21 02:56:09;;;;;;;13.43;7.90;;;;;;;13.72;47.73;94430.88;4909794;29;20236;-52
2023/03/21 02:58:39;;;;;;;13.17;8.00;;;;;;;13.69;47.80;94434.59;4910092;29;20184;-52
2023/03/21 03:01:07;;;;;;;13.77;8.57;;;;;;;13.66;47.72;94431.56;4948838;28;20197;-52
2023/03/21 03:03:38;;;;;;;11.60;7.57;;;;;;;13.65;47.80;94433.31;4989037;28;20279;-50
2023/03/21 03:06:13;;;;;;;11.67;7.40;;;;;;;13.62;47.85;94432.84;4989013;28;20680;-50
2023/03/21 03:08:54;;;;;;;10.63;7.63;;;;;;;13.60;48.04;94433.00;4988654;28;20311;-50
2023/03/21 03:11:27;;;;;;;12.57;8.00;;;;;;;13.55;48.09;94430.91;4989111;28;20197;-53
2023/03/21 03:14:05;;;;;;;10.50;7.20;;;;;;;13.53;47.99;94435.41;4989231;28;20267;-51
2023/03/21 03:16:39;;;;;;;10.00;7.27;;;;;;;13.50;47.70;94435.72;4992688;28;20271;-52
2023/03/21 03:19:11;;;;;;;10.40;6.97;;;;;;;13.48;47.99;94442.81;4992034;28;20192;-50
2023/03/21 03:21:42;;;;;;;13.30;8.20;;;;;;;13.47;48.13;94433.50;4992528;28;20272;-56
2023/03/21 03:24:15;;;;;;;11.93;7.13;;;;;;;13.45;48.15;94440.56;4992250;28;20587;-55
2023/03/21 03:26:48;;;;;;;10.27;7.20;;;;;;;13.42;48.33;94437.50;4992393;28;20613;-57
2023/03/21 03:29:18;;;;;;;11.23;7.57;;;;;;;13.40;48.33;94437.66;4972578;28;20228;-59
2023/03/21 03:31:51;;;;;;;11.50;8.20;;;;;;;13.39;48.21;94448.91;4973160;28;20186;-60
2023/03/21 03:34:21;;;;;;;14.63;7.50;;;;;;;13.36;48.36;94438.16;4972773;28;20190;-54
2023/03/21 03:36:55;;;;;;;13.07;7.03;;;;;;;13.34;48.23;94442.63;4972627;28;20193;-53
2023/03/21 03:39:30;;;;;;;12.53;7.30;;;;;;;13.32;48.27;94442.81;4972596;28;20228;-56
2023/03/21 03:42:02;;;;;;;10.43;7.30;;;;;;;13.28;48.38;94444.88;4987768;28;20684;-56
2023/03/21 03:44:29;;;;;;;8.20;6.37;;;;;;;13.24;48.22;94441.03;4991823;28;20212;-57
2023/03/21 03:47:01;;;;;;;9.60;6.63;;;;;;;13.25;48.45;94441.81;4992177;28;20193;-48
2023/03/21 03:49:32;;;;;;;12.73;7.17;;;;;;;13.22;48.78;94439.56;4991770;28;20224;-56
2023/03/21 03:52:04;;;;;;;8.87;6.87;;;;;;;13.15;48.44;94428.31;4991817;28;20713;-55
2023/03/21 03:54:36;;;;;;;9.90;6.40;;;;;;;13.18;48.55;94439.09;4991652;28;20204;-50
2023/03/21 03:57:04;;;;;;;7.77;6.10;;;;;;;13.15;48.63;94431.69;4991099;28;20224;-56
2023/03/21 03:59:34;;;;;;;11.07;7.17;;;;;;;13.14;48.56;94437.78;4991866;28;20303;-51
2023/03/21 04:02:00;;;;;;;8.80;6.63;;;;;;;13.11;48.88;94435.53;4991485;28;20185;-50
2023/03/21 04:04:28;;;;;;;11.97;6.83;;;;;;;13.10;48.86;94431.38;4991700;28;20200;-49
2023/03/21 04:06:55;;;;;;;9.70;6.50;;;;;;;13.08;48.90;94433.28;4991732;28;20681;-51
2023/03/21 04:09:22;;;;;;;8.47;6.27;;;;;;;13.05;48.87;94437.00;4991205;28;20228;-55
2023/03/21 04:11:50;;;;;;;10.47;7.50;;;;;;;13.03;48.91;94441.47;4990932;28;20574;-50
2023/03/21 04:14:17;;;;;;;11.93;6.50;;;;;;;13.01;49.19;94430.56;4991627;28;20638;-53
2023/03/21 04:16:44;;;;;;;7.53;6.43;;;;;;;13.00;49.14;94436.66;4991280;28;20255;-50
2023/03/21 04:19:10;;;;;;;8.97;6.60;;;;;;;12.99;49.00;94432.47;4991042;28;20196;-55
2023/03/21 04:21:37;;;;;;;14.47;7.17;;;;;;;12.93;49.20;94424.63;4991666;28;20193;-54
2023/03/21 04:24:06;;;;;;;10.13;6.83;;;;;;;12.94;49.15;94421.88;4990764;28;20605;-53
2023/03/21 04:26:34;;;;;;;12.47;7.30;;;;;;;12.94;49.10;94431.34;4990747;28;20197;-53
2023/03/21 04:29:03;;;;;;;8.83;7.03;;;;;;;12.92;49.53;94425.59;4990830;28;20213;-48
2023/03/21 04:31:32;;;;;;;9.17;6.83;;;;;;;12.90;49.17;94415.47;4991347;28;20201;-54
2023/03/21 04:34:00;;;;;;;12.43;7.00;;;;;;;12.89;49.35;94424.13;4991362;28;20193;-56
2023/03/21 04:36:32;;;;;;;9.10;7.10;;;;;;;12.90;49.58;94430.06;4990969;28;20201;-52
2023/03/21 04:39:00;;;;;;;12.37;6.90;;;;;;;12.88;49.31;94429.44;4991027;28;20199;-52
2023/03/21 04:41:27;;;;;;;11.07;7.20;;;;;;;12.90;49.33;94433.41;4990473;28;20653;-48
2023/03/21 04:43:54;;;;;;;7.93;5.50;;;;;;;12.90;49.43;94433.41;4991021;28;20201;-51
2023/03/21 04:46:23;;;;;;;9.50;6.87;;;;;;;12.92;49.44;94431.53;4990599;28;20197;-51
2023/03/21 04:48:49;;;;;;;9.13;7.20;;;;;;;12.93;49.66;94432.31;4990858;28;20585;-54
2023/03/21 04:51:16;;;;;;;10.30;6.67;;;;;;;12.96;49.25;94437.94;4990280;28;20516;-49
2023/03/21 04:53:44;;;;;;;8.87;6.90;;;;;;;13.00;49.26;94436.66;4990888;28;20240;-55
2023/03/21 04:56:11;;;;;;;13.40;7.20;;;;;;;13.03;49.28;94436.31;4990635;28;20307;-58
2023/03/21 04:58:39;;;;;;;10.40;6.97;;;;;;;13.03;49.19;94431.19;4990880;28;20200;-52
2023/03/21 05:01:06;;;;;;;10.13;6.50;;;;;;;13.05;49.33;94426.72;4990627;28;20212;-52
2023/03/21 05:03:38;;;;;;;13.67;6.57;;;;;;;13.16;49.22;94446.13;4990728;28;20205;-55
2023/03/21 05:06:07;;;;;;;8.37;6.30;;;;;;;13.20;49.29;94439.72;4990769;28;20224;-53
2023/03/21 05:08:34;;;;;;;12.63;6.73;;;;;;;13.26;49.16;94444.25;4990490;28;20225;-52
2023/03/21 05:11:01;;;;;;;10.83;6.87;;;;;;;13.28;49.08;94444.09;4990168;28;20194;-59
2023/03/21 05:13:28;;;;;;;11.73;7.07;;;;;;;13.35;49.19;94441.69;4990919;28;20203;-56
2023/03/21 05:15:55;;;;;;;11.33;7.17;;;;;;;13.38;49.07;94444.72;4990617;28;20197;-53
2023/03/21 05:18:23;;;;;;;11.73;6.50;;;;;;;13.46;49.02;94449.06;4991060;28;20263;-57
2023/03/21 05:20:54;;;;;;;12.90;5.97;;;;;;;13.50;49.03;94443.44;4990267;28;20201;-54
2023/03/21 05:23:21;;;;;;;13.37;7.03;;;;;;;13.56;49.17;94444.56;4990449;28;20690;-58
2023/03/21 05:25:47;;;;;;;11.10;7.23;;;;;;;13.64;48.97;94449.69;4990474;28;20202;-56
2023/03/21 05:28:17;;;;;;;14.57;6.60;;;;;;;13.71;48.73;94447.28;4990275;28;20200;-56
2023/03/21 05:30:44;;;;;;;12.80;7.27;;;;;;;13.77;48.89;94447.44;4990300;28;20203;-54
2023/03/21 05:33:11;;;;;;;10.43;6.63;;;;;;;13.84;48.81;94447.56;4990135;28;20321;-53
2023/03/21 05:35:39;;;;;;;11.10;6.57;;;;;;;13.94;48.82;94455.09;4989794;28;20229;-50
2023/03/21 05:38:07;;;;;;;9.70;6.30;;;;;;;14.03;48.78;94451.53;4989408;28;20186;-52
2023/03/21 05:40:34;;;;;;;8.20;6.33;;;;;;;14.14;48.81;94451.22;4989998;28;20197;-53
2023/03/21 05:43:00;;;;;;;11.57;6.90;;;;;;;14.24;48.47;94451.00;4989988;28;20594;-51
2023/03/21 05:45:27;;;;;;;13.07;6.60;;;;;;;14.37;48.25;94451.28;4989887;28;20185;-50
2023/03/21 05:47:54;;;;;;;9.97;6.67;;;;;;;14.48;48.31;94448.38;4989908;28;20193;-51
2023/03/21 05:50:21;;;;;;;11.40;6.90;;;;;;;14.60;48.08;94442.88;4989562;28;20220;-53
2023/03/21 05:52:48;;;;;;;10.70;6.83;;;;;;;14.68;47.84;94430.78;4989876;28;20208;-55
2023/03/21 05:55:16;;;;;;;11.00;6.63;;;;;;;14.87;47.56;94431.31;4989992;28;20197;-50
2023/03/21 05:57:43;;;;;;;12.13;6.87;;;;;;;15.00;47.44;94432.34;4989696;28;20335;-51
2023/03/21 06:00:11;;;;;;;7.80;6.43;;;;;;;15.17;47.19;94427.88;4989998;28;20193;-54
2023/03/21 06:02:38;;;;;;;11.10;5.20;;;;;;;15.49;68.45;94424.22;4989999;28;20193;-57
2023/03/21 06:05:06;;;;;;;16.30;5.60;;;;;;;16.15;71.80;94421.88;4989360;28;20189;-49
2023/03/21 06:07:34;;;;;;;13.07;5.27;;;;;;;16.85;69.47;94417.16;4989932;28;20201;-55
2023/03/21 06:10:02;;;;;;;8.37;5.37;;;;;;;17.48;67.14;94416.31;4989559;28;20358;-50
2023/03/21 06:12:30;;;;;;;10.57;5.20;;;;;;;18.04;64.76;94416.34;4990248;28;20219;-53
2023/03/21 06:14:58;;;;;;;10.10;5.57;;;;;;;18.51;62.82;94416.59;4990003;28;20193;-52
2023/03/21 06:17:25;;;;;;;17.53;5.27;;;;;;;18.92;61.72;94415.78;4990303;28;20185;-55
2023/03/21 06:19:52;;;;;;;7.27;5.07;;;;;;;19.26;60.19;94410.44;4989705;28;20189;-52
2023/03/21 06:22:19;;;;;;;16.73;6.00;;;;;;;19.57;59.21;94413.47;4989719;28;20200;-51
2023/03/21 06:24:45;;;;;;;12.73;5.77;;;;;;;19.83;58.52;94413.47;4989732;28;20203;-56
2023/03/21 06:27:12;;;;;;;7.50;5.10;;;;;;;20.07;58.00;94406.03;4990383;28;20241;-55
2023/03/21 06:29:41;;;;;;;13.97;5.80;;;;;;;20.30;57.38;94404.59;4989812;28;20341;-57
2023/03/21 06:32:07;;;;;;;10.43;5.90;;;;;;;20.51;56.90;94402.75;4990050;28;20276;-57
2023/03/21 06:34:34;;;;;;;9.93;5.47;;;;;;;20.68;56.43;94401.28;4989709;28;20243;-53
2023/03/21 06:37:02;;;;;;;17.97;6.37;;;;;;;20.76;55.83;94418.41;4989476;28;20204;-57
2023/03/21 06:39:30;;;;;;;16.43;7.07;;;;;;;20.75;54.83;94416.84;4989758;28;20200;-57
2023/03/21 06:41:56;;;;;;;11.27;7.13;;;;;;;20.69;54.03;94422.88;4983833;28;20202;-55
2023/03/21 06:44:24;;;;;;;8.67;6.37;;;;;;;20.62;53.44;94417.69;5002616;28;20192;-55
2023/03/21 06:46:53;;;;;;;14.03;7.03;;;;;;;20.51;52.89;94416.53;4989970;28;20291;-49
2023/03/21 06:49:21;;;;;;;16.13;7.77;;;;;;;20.47;52.56;94420.53;4991977;28;20217;-52
2023/03/21 06:51:50;;;;;;;13.20;7.73;;;;;;;20.41;51.91;94423.13;4992526;28;20652;-55
2023/03/21 06:54:17;;;;;;;12.67;8.53;;;;;;;20.34;51.52;94432.75;4991965;28;20189;-53
2023/03/21 06:56:44;;;;;;;12.73;7.57;;;;;;;20.27;51.21;94435.34;4992214;28;20221;-57
2023/03/21 06:59:11;;;;;;;14.13;8.13;;;;;;;20.22;50.98;94440.38;4992145;28;20193;-55
2023/03/21 07:01:39;;;;;;;16.27;8.03;;;;;;;20.18;50.66;94436.59;4991653;28;20196;-57
2023/03/21 07:04:07;;;;;;;12.90;8.03;;;;;;;20.17;50.28;94425.41;4992453;28;20204;-54
2023/03/21 07:06:34;;;;;;;11.57;7.30;;;;;;;20.20;49.96;94435.34;4992125;28;20193;-57
2023/03/21 07:09:01;;;;;;;14.33;7.87;;;;;;;20.26;49.65;94439.75;4991689;28;20216;-56
2023/03/21 07:11:28;;;;;;;15.07;7.23;;;;;;;20.38;49.14;94436.50;4992042;28;20185;-55
2023/03/21 07:13:55;;;;;;;9.73;6.90;;;;;;;20.48;48.96;94435.13;4992087;28;20197;-56
2023/03/21 07:16:23;;;;;;;13.83;7.13;;;;;;;20.60;48.56;94434.50;4991760;28;20203;-56
2023/03/21 07:18:51;;;;;;;11.27;7.17;;;;;;;20.70;48.14;94438.25;4991865;28;20204;-54
2023/03/21 07:21:19;;;;;;;11.47;7.50;;;;;;;20.78;48.02;94445.81;4991527;28;20594;-54
2023/03/21 07:23:46;;;;;;;11.33;7.37;;;;;;;20.83;47.80;94441.78;4991406;28;20248;-56
2023/03/21 07:26:14;;;;;;;11.63;7.37;;;;;;;20.86;47.72;94441.41;4991918;28;20219;-56
2023/03/21 07:28:41;;;;;;;16.53;7.57;;;;;;;20.88;47.47;94427.16;4990782;28;20733;-55
2023/03/21 07:31:08;;;;;;;11.37;7.37;;;;;;;20.92;47.21;94430.94;4992032;28;20216;-55
2023/03/21 07:33:35;;;;;;;11.32;7.45;;;;;;;20.96;47.03;94432.13;4988516;28;20205;-55
2023/03/21 07:36:02;;;;;;;19.65;7.53;;;;;;;20.98;46.74;94427.53;4991340;28;20197;-52
2023/03/21 07:38:30;;;;;;;13.37;8.23;;;;;;;21.01;46.48;94442.69;4991351;28;20209;-53
2023/03/21 07:41:00;;;;;;;14.47;8.23;;;;;;;21.03;46.49;94432.09;4991322;28;20248;-54
2023/03/21 07:43:27;;;;;;;16.97;8.10;;;;;;;21.08;46.30;94436.69;4987054;28;20220;-52
2023/03/21 07:45:58;;;;;;;10.40;7.37;;;;;;;21.13;46.15;94435.03;4991566;28;20653;-54
2023/03/21 07:48:25;;;;;;;10.77;7.87;;;;;;;21.21;45.71;94437.41;4991185;28;20197;-57
2023/03/21 07:50:52;;;;;;;11.47;7.80;;;;;;;21.32;45.88;94438.53;4991625;28;20227;-52
2023/03/21 07:53:19;;;;;;;11.65;8.10;;;;;;;21.41;45.53;94441.69;4990894;28;20251;-54
2023/03/21 07:55:50;;;;;;;9.57;7.60;;;;;;;21.52;45.28;94448.81;4991230;28;20197;-55
2023/03/21 07:58:16;;;;;;;11.50;7.57;;;;;;;21.60;45.14;94456.38;4990257;28;20181;-55
2023/03/21 08:00:43;;;;;;;13.10;7.75;;;;;;;21.68;44.90;94450.13;4988690;28;20197;-54
2023/03/21 08:03:12;;;;;;;11.63;7.57;;;;;;;21.71;45.01;94440.06;4988897;28;20211;-52
2023/03/21 08:05:39;;;;;;;13.43;8.40;;;;;;;21.75;44.85;94448.25;4991178;28;20813;-52
2023/03/21 08:08:07;;;;;;;14.77;8.00;;;;;;;21.77;44.66;94448.84;4991586;28;20193;-57
2023/03/21 08:10:34;;;;;;;14.50;8.38;;;;;;;21.79;44.49;94449.41;4990783;28;20243;-49
2023/03/21 08:13:03;;;;;;;12.43;8.43;;;;;;;21.81;44.44;94447.41;4990637;28;20244;-54
2023/03/21 08:15:30;;;;;;;13.20;7.88;;;;;;;21.82;44.12;94443.00;4989166;28;20196;-52
2023/03/21 08:17:59;;;;;;;13.68;8.27;;;;;;;21.84;44.09;94441.75;4990436;28;20216;-56
2023/03/21 08:20:26;;;;;;;13.32;8.07;;;;;;;21.88;43.89;94442.13;4991008;28;20193;-56
2023/03/21 08:22:53;;;;;;;13.82;7.80;;;;;;;21.90;43.94;94442.72;4991639;28;20201;-54
2023/03/21 08:25:22;;;;;;;12.43;9.07;;;;;;;21.92;43.79;94438.09;4990656;28;20208;-55
2023/03/21 08:27:50;;;;;;;14.30;8.30;;;;;;;21.93;43.61;94429.25;4990712;28;20680;-54
2023/03/21 08:30:20;;;;;;;16.55;8.43;;;;;;;21.95;43.63;94433.25;4990458;28;20352;-54
2023/03/21 08:32:47;;;;;;;13.93;7.93;;;;;;;21.98;43.39;94429.44;4990812;28;20223;-57
2023/03/21 08:35:16;;;;;;;12.35;8.30;;;;;;;21.90;43.31;94412.28;4990749;28;20192;-50
2023/03/21 08:37:43;;;;;;;13.45;8.18;;;;;;;22.05;43.41;94430.94;4987421;28;20189;-49
2023/03/21 08:40:13;;;;;;;15.55;8.38;;;;;;;22.11;43.13;94433.72;4989313;28;20197;-58
2023/03/21 08:42:40;;;;;;;12.70;7.40;;;;;;;22.15;43.08;94434.91;4990118;28;20197;-51
2023/03/21 08:45:09;;;;;;;11.50;7.72;;;;;;;22.18;43.06;94437.06;4990303;28;20196;-52
2023/03/21 08:47:37;;;;;;;13.48;8.07;;;;;;;22.20;42.73;94424.66;4990759;28;20197;-53
2023/03/21 08:50:06;;;;;;;16.55;8.05;;;;;;;22.20;42.67;94432.47;4987716;28;20220;-51
2023/03/21 08:52:33;;;;;;;12.27;7.60;;;;;;;22.20;42.60;94435.06;4984956;28;20236;-51
2023/03/21 08:55:00;;;;;;;14.75;8.23;;;;;;;22.19;42.67;94426.47;4990198;28;20197;-54
2023/03/21 08:57:28;;;;;;;14.65;6.75;;;;;;;22.20;42.54;94425.44;4987287;28;20332;-55
2023/03/21 08:59:55;;;;;;;12.15;8.07;;;;;;;22.21;42.58;94432.25;4987801;28;20275;-55
2023/03/21 09:02:22;;;;;;;9.55;6.95;;;;;;;22.22;42.36;94426.00;4989615;28;20193;-56
2023/03/21 09:04:53;;;;;;;8.82;7.10;;;;;;;22.25;42.36;94422.97;4990268;28;20205;-53
2023/03/21 09:07:25;;;;;;;11.00;7.53;;;;;;;22.27;42.45;94420.94;4988898;28;20637;-52
2023/03/21 09:09:52;;;;;;;10.73;7.55;;;;;;;22.28;42.35;94421.75;4990132;28;20617;-51
2023/03/21 09:12:19;;;;;;;15.40;7.93;;;;;;;22.25;42.30;94414.38;4989674;28;20676;-53
2023/03/21 09:14:46;;;;;;;13.05;7.43;;;;;;;22.21;42.02;94415.81;4991579;28;20687;-53
2023/03/21 09:17:14;;;;;;;10.82;7.15;;;;;;;22.18;41.95;94409.22;4989604;28;20193;-49
2023/03/21 09:19:41;;;;;;;9.10;6.82;;;;;;;22.17;42.07;94410.25;4989758;28;20197;-47
2023/03/21 09:22:16;;;;;;;9.82;6.97;;;;;;;22.16;42.15;94402.66;4989261;28;20621;-51
2023/03/21 09:24:43;;;;;;;12.07;7.15;;;;;;;22.14;41.98;94400.25;4987879;28;20291;-48
2023/03/21 09:27:11;;;;;;;11.95;7.13;;;;;;;22.16;42.08;94400.03;4989075;28;20207;-50
2023/03/21 09:29:38;;;;;;;13.07;7.63;;;;;;;22.19;41.85;94389.19;4989068;28;20196;-50
2023/03/21 09:32:05;;;;;;;10.48;7.10;;;;;;;22.22;41.87;94386.94;4989096;28;20810;-53
2023/03/21 09:34:32;;;;;;;12.25;7.85;;;;;;;22.25;41.78;94385.72;4989462;28;20580;-48
2023/03/21 09:36:59;;;;;;;8.50;6.65;;;;;;;22.31;41.70;94392.66;4989093;28;20251;-52
2023/03/21 09:39:27;;;;;;;12.13;7.28;;;;;;;22.34;41.52;94381.00;4989082;28;20569;-51
2023/03/21 09:42:32;;;;;;;9.73;7.43;;;;;;;22.43;41.58;94367.47;4989020;28;20284;-52
2023/03/21 09:45:08;;;;;;;8.85;6.75;;;;;;;22.51;41.18;94358.56;4909268;29;20747;-49
2023/03/21 09:47:44;;;;;;;12.13;7.72;;;;;;;22.53;41.56;94367.72;4907089;29;20259;-55
2023/03/21 09:50:18;;;;;;;14.23;7.88;;;;;;;22.56;41.53;94374.31;4897036;29;20216;-50
2023/03/21 09:52:50;;;;;;;14.25;7.72;;;;;;;22.56;41.34;94365.72;4893970;29;20712;-51
2023/03/21 09:55:23;;;;;;;11.13;7.70;;;;;;;22.60;41.37;94367.66;4901528;29;20303;-49
2023/03/21 09:57:56;;;;;;;9.15;7.50;;;;;;;22.59;41.13;94357.47;4903888;29;20235;-50
2023/03/21 10:00:28;;;;;;;9.75;7.38;;;;;;;22.67;41.16;94359.78;4909567;29;20223;-57
2023/03/21 10:02:58;;;;;;;10.27;7.10;;;;;;;22.69;40.96;94355.91;4909043;29;20278;-52
2023/03/21 10:05:27;;;;;;;12.02;7.68;;;;;;;22.74;41.04;94350.03;4904936;29;20199;-57
2023/03/21 10:07:58;;;;;;;9.98;7.35;;;;;;;22.76;40.88;94351.41;4902966;29;20195;-59
2023/03/21 10:10:29;;;;;;;11.35;7.40;;;;;;;22.85;41.10;94351.91;4906830;29;20270;-56
2023/03/21 10:12:57;;;;;;;13.82;7.50;;;;;;;22.95;40.55;94346.97;4900521;29;20199;-54
2023/03/21 10:15:26;;;;;;;14.57;6.72;;;;;;;23.11;40.43;94348.16;4904732;29;20196;-49
2023/03/21 10:17:58;;;;;;;11.43;7.47;;;;;;;23.31;40.45;94339.19;4906645;28;20187;-53
2023/03/21 10:20:30;;;;;;;10.13;7.10;;;;;;;23.34;39.98;94316.06;4986042;28;20188;-50
2023/03/21 10:22:59;;;;;;;12.88;7.35;;;;;;;23.76;39.87;94339.50;4987397;28;20189;-57
2023/03/21 10:25:32;;;;;;;13.00;7.57;;;;;;;23.99;39.39;94343.91;4989929;28;20887;-53
2023/03/21 10:28:00;;;;;;;11.43;6.78;;;;;;;24.18;39.26;94331.47;4990294;28;20208;-55
2023/03/21 10:30:38;;;;;;;9.85;7.32;;;;;;;24.33;39.18;94338.84;4989023;28;20244;-48
2023/03/21 10:33:09;;;;;;;8.55;6.80;;;;;;;24.45;39.10;94339.63;4992170;28;20200;-55
2023/03/21 10:35:38;;;;;;;9.65;6.93;;;;;;;24.52;39.02;94343.72;4992278;28;20573;-50
2023/03/21 10:38:06;;;;;;;9.93;6.35;;;;;;;24.56;38.77;94343.22;4991959;28;20196;-50
2023/03/21 10:40:35;;;;;;;9.75;7.05;;;;;;;24.62;38.83;94345.72;4992101;28;20201;-55
2023/03/21 10:43:18;;;;;;;12.50;7.72;;;;;;;24.66;38.59;94344.22;4992647;28;20621;-54
2023/03/21 10:45:46;;;;;;;10.43;6.28;;;;;;;24.71;38.84;94338.28;4988843;28;20185;-52
2023/03/21 10:48:13;;;;;;;8.55;6.90;;;;;;;24.61;38.66;94317.16;4992695;28;20574;-49
2023/03/21 10:50:40;;;;;;;7.80;6.00;;;;;;;24.76;38.53;94336.56;4992021;28;20256;-50
2023/03/21 10:53:17;;;;;;;9.82;6.65;;;;;;;24.83;38.49;94344.25;4990167;28;20196;-49
2023/03/21 10:55:49;;;;;;;13.07;7.10;;;;;;;24.87;38.58;94341.94;4989878;28;20681;-49
2023/03/21 10:58:26;;;;;;;11.50;6.90;;;;;;;24.89;38.21;94329.44;4992562;28;20201;-52
2023/03/21 11:00:57;;;;;;;10.93;6.35;;;;;;;24.90;38.32;94321.34;4992126;28;20675;-51
2023/03/21 11:03:30;;;;;;;10.02;6.80;;;;;;;24.93;38.55;94323.50;4992014;28;20260;-54
2023/03/21 11:06:01;;;;;;;7.90;6.20;;;;;;;24.93;38.15;94320.09;4991988;28;20573;-57
2023/03/21 11:08:28;;;;;;;7.57;6.68;;;;;;;24.93;38.56;94320.09;4992243;28;20211;-53
2023/03/21 11:11:01;;;;;;;9.82;6.35;;;;;;;24.93;38.21;94307.81;4991783;28;20659;-52
2023/03/21 11:13:36;;;;;;;7.20;5.80;;;;;;;24.95;38.04;94318.03;4992027;28;20209;-55
2023/03/21 11:16:08;;;;;;;8.65;6.75;;;;;;;24.94;38.43;94306.78;4990334;28;20201;-51
2023/03/21 11:18:42;;;;;;;8.40;7.10;;;;;;;24.96;38.48;94311.78;4991904;28;20204;-50
2023/03/21 11:21:11;;;;;;;11.35;6.78;;;;;;;24.98;38.33;94307.09;4989906;28;20201;-53
2023/03/21 11:23:44;;;;;;;9.43;6.10;;;;;;;25.00;38.04;94305.84;4992026;28;20256;-51
2023/03/21 11:26:19;;;;;;;7.95;6.03;;;;;;;25.03;38.04;94307.97;4988907;28;20197;-55
2023/03/21 11:28:46;;;;;;;10.18;5.95;;;;;;;25.11;38.03;94301.59;4991905;28;20212;-55
2023/03/21 11:31:13;;;;;;;6.45;5.60;;;;;;;25.12;37.93;94282.22;4991449;28;20228;-53
2023/03/21 11:33:44;;;;;;;7.85;6.93;;;;;;;25.15;37.85;94284.38;4991025;28;20201;-50
2023/03/21 11:36:32;;;;;;;8.88;5.90;;;;;;;25.11;37.88;94277.25;4990971;28;20665;-54
2023/03/21 11:39:07;;;;;;;8.27;6.03;;;;;;;25.06;37.92;94277.13;4991321;28;20292;-53
2023/03/21 11:41:35;;;;;;;10.20;5.85;;;;;;;25.03;37.96;94281.00;4991415;28;20208;-51